sensor_id;sensor_type;location;lat;lon;timestamp;P1;durP1;ratioP1;P2;durP2;ratioP2
7181;SDS011;3632;42.724;23.298;2023-04-15T00:02:14;7.87;;;5.17;;
7181;SDS011;3632;42.724;23.298;2023-04-15T00:04:42;7.60;;;5.13;;
7181;SDS011;3632;42.724;23.298;2023-04-15T00:07:09;10.73;;;5.37;;
7181;SDS011;3632;42.724;23.298;2023-04-15T00:09:35;9.13;;;5.60;;
7181;SDS011;3632;42.724;23.298;2023-04-15T00:12:02;10.23;;;6.97;;
7181;SDS011;3632;42.724;23.298;2023-04-15T00:14:29;10.40;;;6.63;;
7181;SDS011;3632;42.724;23.298;2023-04-15T00:16:56;9.03;;;5.70;;
7181;SDS011;3632;42.724;23.298;2023-04-15T00:19:24;8.70;;;5.37;;
7181;SDS011;3632;42.724;23.298;2023-04-15T00:21:51;8.17;;;5.87;;
7181;SDS011;3632;42.724;23.298;2023-04-15T00:24:18;7.97;;;5.20;;
7181;SDS011;3632;42.724;23.298;2023-04-15T00:26:44;10.00;;;6.20;;
7181;SDS011;3632;42.724;23.298;2023-04-15T00:29:11;11.27;;;6.43;;
7181;SDS011;3632;42.724;23.298;2023-04-15T00:31:39;10.40;;;6.37;;
7181;SDS011;3632;42.724;23.298;2023-04-15T00:34:06;10.33;;;6.20;;
7181;SDS011;3632;42.724;23.298;2023-04-15T00:36:34;8.83;;;5.37;;
7181;SDS011;3632;42.724;23.298;2023-04-15T00:39:01;10.07;;;5.83;;
7181;SDS011;3632;42.724;23.298;2023-04-15T00:41:29;8.50;;;5.47;;
7181;SDS011;3632;42.724;23.298;2023-04-15T00:43:56;8.37;;;5.40;;
7181;SDS011;3632;42.724;23.298;2023-04-15T00:46:23;8.20;;;5.57;;
7181;SDS011;3632;42.724;23.298;2023-04-15T00:48:52;8.70;;;5.80;;
7181;SDS011;3632;42.724;23.298;2023-04-15T00:51:20;8.83;;;5.53;;
7181;SDS011;3632;42.724;23.298;2023-04-15T00:53:48;10.83;;;5.90;;
7181;SDS011;3632;42.724;23.298;2023-04-15T00:56:15;9.97;;;6.07;;
7181;SDS011;3632;42.724;23.298;2023-04-15T00:58:43;8.70;;;5.60;;
7181;SDS011;3632;42.724;23.298;2023-04-15T01:01:09;8.87;;;5.63;;
7181;SDS011;3632;42.724;23.298;2023-04-15T01:03:36;7.93;;;5.73;;
7181;SDS011;3632;42.724;23.298;2023-04-15T01:06:03;9.30;;;5.90;;
7181;SDS011;3632;42.724;23.298;2023-04-15T01:08:30;9.50;;;6.40;;
7181;SDS011;3632;42.724;23.298;2023-04-15T01:10:58;9.87;;;6.57;;
7181;SDS011;3632;42.724;23.298;2023-04-15T01:13:27;10.53;;;6.50;;
7181;SDS011;3632;42.724;23.298;2023-04-15T01:15:54;10.00;;;7.03;;
7181;SDS011;3632;42.724;23.298;2023-04-15T01:18:22;11.57;;;7.00;;
7181;SDS011;3632;42.724;23.298;2023-04-15T01:20:49;12.63;;;8.03;;
7181;SDS011;3632;42.724;23.298;2023-04-15T01:23:16;9.53;;;7.10;;
7181;SDS011;3632;42.724;23.298;2023-04-15T01:25:44;17.97;;;10.97;;
7181;SDS011;3632;42.724;23.298;2023-04-15T01:28:12;13.00;;;8.10;;
7181;SDS011;3632;42.724;23.298;2023-04-15T01:30:38;10.50;;;7.10;;
7181;SDS011;3632;42.724;23.298;2023-04-15T01:33:05;10.77;;;7.87;;
7181;SDS011;3632;42.724;23.298;2023-04-15T01:35:32;11.37;;;9.00;;
7181;SDS011;3632;42.724;23.298;2023-04-15T01:38:01;10.40;;;7.30;;
7181;SDS011;3632;42.724;23.298;2023-04-15T01:40:31;9.10;;;6.70;;
7181;SDS011;3632;42.724;23.298;2023-04-15T01:42:59;10.40;;;6.20;;
7181;SDS011;3632;42.724;23.298;2023-04-15T01:45:26;10.77;;;7.23;;
7181;SDS011;3632;42.724;23.298;2023-04-15T01:47:53;11.87;;;7.10;;
7181;SDS011;3632;42.724;23.298;2023-04-15T01:50:20;8.57;;;6.30;;
7181;SDS011;3632;42.724;23.298;2023-04-15T01:52:46;9.87;;;6.37;;
7181;SDS011;3632;42.724;23.298;2023-04-15T01:55:13;13.27;;;7.10;;
7181;SDS011;3632;42.724;23.298;2023-04-15T01:57:40;10.00;;;6.70;;
7181;SDS011;3632;42.724;23.298;2023-04-15T02:00:09;9.60;;;6.67;;
7181;SDS011;3632;42.724;23.298;2023-04-15T02:02:36;12.27;;;7.57;;
7181;SDS011;3632;42.724;23.298;2023-04-15T02:05:03;11.07;;;7.50;;
7181;SDS011;3632;42.724;23.298;2023-04-15T02:07:30;11.13;;;7.43;;
7181;SDS011;3632;42.724;23.298;2023-04-15T02:09:57;12.27;;;7.37;;
7181;SDS011;3632;42.724;23.298;2023-04-15T02:12:24;7.83;;;6.07;;
7181;SDS011;3632;42.724;23.298;2023-04-15T02:14:51;9.93;;;6.30;;
7181;SDS011;3632;42.724;23.298;2023-04-15T02:17:19;9.00;;;5.87;;
7181;SDS011;3632;42.724;23.298;2023-04-15T02:19:46;9.60;;;5.87;;
7181;SDS011;3632;42.724;23.298;2023-04-15T02:22:13;8.03;;;6.03;;
7181;SDS011;3632;42.724;23.298;2023-04-15T02:24:42;8.30;;;5.53;;
7181;SDS011;3632;42.724;23.298;2023-04-15T02:27:10;8.87;;;6.50;;
7181;SDS011;3632;42.724;23.298;2023-04-15T02:29:36;8.80;;;6.37;;
7181;SDS011;3632;42.724;23.298;2023-04-15T02:32:03;8.43;;;6.57;;
7181;SDS011;3632;42.724;23.298;2023-04-15T02:34:32;9.93;;;6.40;;
7181;SDS011;3632;42.724;23.298;2023-04-15T02:37:00;8.47;;;6.27;;
7181;SDS011;3632;42.724;23.298;2023-04-15T02:39:27;11.57;;;7.37;;
7181;SDS011;3632;42.724;23.298;2023-04-15T02:41:54;12.10;;;7.50;;
7181;SDS011;3632;42.724;23.298;2023-04-15T02:44:23;8.43;;;7.00;;
7181;SDS011;3632;42.724;23.298;2023-04-15T02:46:49;9.77;;;7.27;;
7181;SDS011;3632;42.724;23.298;2023-04-15T02:49:18;10.10;;;6.63;;
7181;SDS011;3632;42.724;23.298;2023-04-15T02:51:47;8.93;;;6.27;;
7181;SDS011;3632;42.724;23.298;2023-04-15T02:54:14;7.80;;;6.40;;
7181;SDS011;3632;42.724;23.298;2023-04-15T02:56:40;9.03;;;6.27;;
7181;SDS011;3632;42.724;23.298;2023-04-15T02:59:07;9.90;;;6.07;;
7181;SDS011;3632;42.724;23.298;2023-04-15T03:01:34;8.00;;;5.97;;
7181;SDS011;3632;42.724;23.298;2023-04-15T03:04:01;8.33;;;5.93;;
7181;SDS011;3632;42.724;23.298;2023-04-15T03:06:27;9.03;;;5.73;;
7181;SDS011;3632;42.724;23.298;2023-04-15T03:08:56;8.80;;;5.67;;
7181;SDS011;3632;42.724;23.298;2023-04-15T03:11:24;7.07;;;5.33;;
7181;SDS011;3632;42.724;23.298;2023-04-15T03:13:51;9.00;;;6.13;;
7181;SDS011;3632;42.724;23.298;2023-04-15T03:16:18;10.03;;;6.90;;
7181;SDS011;3632;42.724;23.298;2023-04-15T03:18:45;9.43;;;6.70;;
7181;SDS011;3632;42.724;23.298;2023-04-15T03:21:11;6.63;;;5.40;;
7181;SDS011;3632;42.724;23.298;2023-04-15T03:23:38;8.20;;;4.60;;
7181;SDS011;3632;42.724;23.298;2023-04-15T03:26:06;7.77;;;5.27;;
7181;SDS011;3632;42.724;23.298;2023-04-15T03:28:33;7.70;;;5.10;;
7181;SDS011;3632;42.724;23.298;2023-04-15T03:31:00;14.33;;;5.53;;
7181;SDS011;3632;42.724;23.298;2023-04-15T03:33:27;14.80;;;10.33;;
7181;SDS011;3632;42.724;23.298;2023-04-15T03:35:53;16.13;;;10.50;;
7181;SDS011;3632;42.724;23.298;2023-04-15T03:38:20;10.07;;;6.87;;
7181;SDS011;3632;42.724;23.298;2023-04-15T03:40:47;9.50;;;7.50;;
7181;SDS011;3632;42.724;23.298;2023-04-15T03:43:15;10.53;;;7.40;;
7181;SDS011;3632;42.724;23.298;2023-04-15T03:45:42;12.07;;;7.20;;
7181;SDS011;3632;42.724;23.298;2023-04-15T03:48:08;9.10;;;6.77;;
7181;SDS011;3632;42.724;23.298;2023-04-15T03:50:35;9.10;;;6.23;;
7181;SDS011;3632;42.724;23.298;2023-04-15T03:53:02;21.47;;;15.03;;
7181;SDS011;3632;42.724;23.298;2023-04-15T03:55:29;11.73;;;6.90;;
7181;SDS011;3632;42.724;23.298;2023-04-15T03:57:55;10.23;;;6.43;;
7181;SDS011;3632;42.724;23.298;2023-04-15T04:00:24;12.20;;;6.57;;
7181;SDS011;3632;42.724;23.298;2023-04-15T04:02:50;11.10;;;8.40;;
7181;SDS011;3632;42.724;23.298;2023-04-15T04:05:17;11.57;;;8.23;;
7181;SDS011;3632;42.724;23.298;2023-04-15T04:07:44;9.63;;;7.57;;
7181;SDS011;3632;42.724;23.298;2023-04-15T04:10:11;12.10;;;7.23;;
7181;SDS011;3632;42.724;23.298;2023-04-15T04:12:38;11.47;;;7.20;;
7181;SDS011;3632;42.724;23.298;2023-04-15T04:15:05;14.03;;;10.60;;
7181;SDS011;3632;42.724;23.298;2023-04-15T04:17:34;15.30;;;9.70;;
7181;SDS011;3632;42.724;23.298;2023-04-15T04:20:01;13.43;;;7.80;;
7181;SDS011;3632;42.724;23.298;2023-04-15T04:22:28;17.23;;;9.40;;
7181;SDS011;3632;42.724;23.298;2023-04-15T04:24:55;13.67;;;8.27;;
7181;SDS011;3632;42.724;23.298;2023-04-15T04:27:23;12.43;;;8.27;;
7181;SDS011;3632;42.724;23.298;2023-04-15T04:29:50;12.07;;;8.17;;
7181;SDS011;3632;42.724;23.298;2023-04-15T04:32:16;8.33;;;6.17;;
7181;SDS011;3632;42.724;23.298;2023-04-15T04:34:45;9.60;;;6.90;;
7181;SDS011;3632;42.724;23.298;2023-04-15T04:37:12;9.37;;;7.07;;
7181;SDS011;3632;42.724;23.298;2023-04-15T04:39:39;10.57;;;7.23;;
7181;SDS011;3632;42.724;23.298;2023-04-15T04:42:05;9.63;;;6.20;;
7181;SDS011;3632;42.724;23.298;2023-04-15T04:44:32;11.00;;;7.17;;
7181;SDS011;3632;42.724;23.298;2023-04-15T04:46:59;8.40;;;6.77;;
7181;SDS011;3632;42.724;23.298;2023-04-15T04:49:26;10.43;;;6.67;;
7181;SDS011;3632;42.724;23.298;2023-04-15T04:51:54;10.60;;;6.53;;
7181;SDS011;3632;42.724;23.298;2023-04-15T04:54:21;8.83;;;6.77;;
7181;SDS011;3632;42.724;23.298;2023-04-15T04:56:48;9.63;;;6.90;;
7181;SDS011;3632;42.724;23.298;2023-04-15T04:59:15;8.43;;;6.40;;
7181;SDS011;3632;42.724;23.298;2023-04-15T05:01:41;11.00;;;7.13;;
7181;SDS011;3632;42.724;23.298;2023-04-15T05:04:08;12.80;;;6.37;;
7181;SDS011;3632;42.724;23.298;2023-04-15T05:06:35;9.17;;;6.77;;
7181;SDS011;3632;42.724;23.298;2023-04-15T05:09:03;8.80;;;6.70;;
7181;SDS011;3632;42.724;23.298;2023-04-15T05:11:30;11.37;;;6.93;;
7181;SDS011;3632;42.724;23.298;2023-04-15T05:13:57;9.30;;;6.73;;
7181;SDS011;3632;42.724;23.298;2023-04-15T05:16:25;11.63;;;6.60;;
7181;SDS011;3632;42.724;23.298;2023-04-15T05:18:52;9.10;;;6.87;;
7181;SDS011;3632;42.724;23.298;2023-04-15T05:21:19;8.57;;;6.97;;
7181;SDS011;3632;42.724;23.298;2023-04-15T05:23:46;12.37;;;8.80;;
7181;SDS011;3632;42.724;23.298;2023-04-15T05:26:14;9.43;;;6.47;;
7181;SDS011;3632;42.724;23.298;2023-04-15T05:28:41;9.63;;;6.53;;
7181;SDS011;3632;42.724;23.298;2023-04-15T05:31:08;9.57;;;6.50;;
7181;SDS011;3632;42.724;23.298;2023-04-15T05:33:35;9.43;;;6.47;;
7181;SDS011;3632;42.724;23.298;2023-04-15T05:36:02;8.77;;;6.50;;
7181;SDS011;3632;42.724;23.298;2023-04-15T05:38:29;10.73;;;6.43;;
7181;SDS011;3632;42.724;23.298;2023-04-15T05:40:56;11.33;;;7.53;;
7181;SDS011;3632;42.724;23.298;2023-04-15T05:43:24;10.00;;;6.53;;
7181;SDS011;3632;42.724;23.298;2023-04-15T05:45:50;7.33;;;5.70;;
7181;SDS011;3632;42.724;23.298;2023-04-15T05:48:17;7.63;;;5.90;;
7181;SDS011;3632;42.724;23.298;2023-04-15T05:50:44;8.83;;;5.83;;
7181;SDS011;3632;42.724;23.298;2023-04-15T05:53:11;8.93;;;4.83;;
7181;SDS011;3632;42.724;23.298;2023-04-15T05:55:37;8.80;;;5.20;;
7181;SDS011;3632;42.724;23.298;2023-04-15T05:58:04;8.53;;;5.23;;
7181;SDS011;3632;42.724;23.298;2023-04-15T06:00:32;9.10;;;5.10;;
7181;SDS011;3632;42.724;23.298;2023-04-15T06:02:59;6.93;;;4.73;;
7181;SDS011;3632;42.724;23.298;2023-04-15T06:05:26;5.60;;;4.40;;
7181;SDS011;3632;42.724;23.298;2023-04-15T06:07:53;7.37;;;4.60;;
7181;SDS011;3632;42.724;23.298;2023-04-15T06:10:20;8.07;;;4.40;;
7181;SDS011;3632;42.724;23.298;2023-04-15T06:12:46;8.93;;;4.40;;
7181;SDS011;3632;42.724;23.298;2023-04-15T06:15:13;7.77;;;5.20;;
7181;SDS011;3632;42.724;23.298;2023-04-15T06:17:42;6.37;;;4.97;;
7181;SDS011;3632;42.724;23.298;2023-04-15T06:20:09;8.13;;;4.83;;
7181;SDS011;3632;42.724;23.298;2023-04-15T06:22:37;6.67;;;4.53;;
7181;SDS011;3632;42.724;23.298;2023-04-15T06:25:04;8.37;;;5.10;;
7181;SDS011;3632;42.724;23.298;2023-04-15T06:27:32;12.03;;;6.47;;
7181;SDS011;3632;42.724;23.298;2023-04-15T06:29:59;8.70;;;5.70;;
7181;SDS011;3632;42.724;23.298;2023-04-15T06:32:25;9.20;;;5.83;;
7181;SDS011;3632;42.724;23.298;2023-04-15T06:34:53;9.27;;;5.83;;
7181;SDS011;3632;42.724;23.298;2023-04-15T06:37:20;10.37;;;5.77;;
7181;SDS011;3632;42.724;23.298;2023-04-15T06:39:47;10.00;;;6.00;;
7181;SDS011;3632;42.724;23.298;2023-04-15T06:42:14;8.57;;;6.03;;
7181;SDS011;3632;42.724;23.298;2023-04-15T06:44:41;8.13;;;5.70;;
7181;SDS011;3632;42.724;23.298;2023-04-15T06:47:08;11.97;;;5.83;;
7181;SDS011;3632;42.724;23.298;2023-04-15T06:49:37;13.53;;;7.43;;
7181;SDS011;3632;42.724;23.298;2023-04-15T06:52:05;8.47;;;5.90;;
7181;SDS011;3632;42.724;23.298;2023-04-15T06:54:32;8.73;;;5.30;;
7181;SDS011;3632;42.724;23.298;2023-04-15T06:56:59;8.27;;;6.03;;
7181;SDS011;3632;42.724;23.298;2023-04-15T06:59:26;8.97;;;5.47;;
7181;SDS011;3632;42.724;23.298;2023-04-15T07:01:53;8.10;;;5.87;;
7181;SDS011;3632;42.724;23.298;2023-04-15T07:04:19;13.10;;;6.57;;
7181;SDS011;3632;42.724;23.298;2023-04-15T07:06:46;13.87;;;7.17;;
7181;SDS011;3632;42.724;23.298;2023-04-15T07:09:14;9.90;;;6.23;;
7181;SDS011;3632;42.724;23.298;2023-04-15T07:11:41;9.27;;;5.73;;
7181;SDS011;3632;42.724;23.298;2023-04-15T07:14:07;6.83;;;5.47;;
7181;SDS011;3632;42.724;23.298;2023-04-15T07:16:34;12.73;;;6.03;;
7181;SDS011;3632;42.724;23.298;2023-04-15T07:19:01;8.53;;;5.23;;
7181;SDS011;3632;42.724;23.298;2023-04-15T07:21:28;7.97;;;5.20;;
7181;SDS011;3632;42.724;23.298;2023-04-15T07:23:55;8.37;;;5.23;;
7181;SDS011;3632;42.724;23.298;2023-04-15T07:26:24;11.00;;;6.63;;
7181;SDS011;3632;42.724;23.298;2023-04-15T07:28:50;6.87;;;4.27;;
7181;SDS011;3632;42.724;23.298;2023-04-15T07:31:17;7.17;;;4.80;;
7181;SDS011;3632;42.724;23.298;2023-04-15T07:33:44;9.90;;;4.93;;
7181;SDS011;3632;42.724;23.298;2023-04-15T07:36:11;6.30;;;4.10;;
7181;SDS011;3632;42.724;23.298;2023-04-15T07:38:38;7.00;;;3.90;;
7181;SDS011;3632;42.724;23.298;2023-04-15T07:41:05;7.87;;;3.30;;
7181;SDS011;3632;42.724;23.298;2023-04-15T07:43:33;6.33;;;3.30;;
7181;SDS011;3632;42.724;23.298;2023-04-15T07:46:00;6.93;;;3.63;;
7181;SDS011;3632;42.724;23.298;2023-04-15T07:48:27;6.37;;;3.67;;
7181;SDS011;3632;42.724;23.298;2023-04-15T07:50:54;9.37;;;4.27;;
7181;SDS011;3632;42.724;23.298;2023-04-15T07:53:21;5.23;;;3.50;;
7181;SDS011;3632;42.724;23.298;2023-04-15T07:55:48;7.43;;;3.17;;
7181;SDS011;3632;42.724;23.298;2023-04-15T07:58:14;6.00;;;3.43;;
7181;SDS011;3632;42.724;23.298;2023-04-15T08:00:42;7.60;;;5.60;;
7181;SDS011;3632;42.724;23.298;2023-04-15T08:03:09;7.97;;;3.97;;
7181;SDS011;3632;42.724;23.298;2023-04-15T08:05:36;7.50;;;3.73;;
7181;SDS011;3632;42.724;23.298;2023-04-15T08:08:03;5.90;;;2.93;;
7181;SDS011;3632;42.724;23.298;2023-04-15T08:10:31;3.07;;;1.93;;
7181;SDS011;3632;42.724;23.298;2023-04-15T08:12:58;3.50;;;1.70;;
7181;SDS011;3632;42.724;23.298;2023-04-15T08:15:25;2.80;;;1.30;;
7181;SDS011;3632;42.724;23.298;2023-04-15T08:17:53;2.13;;;1.00;;
7181;SDS011;3632;42.724;23.298;2023-04-15T08:20:20;3.70;;;1.30;;
7181;SDS011;3632;42.724;23.298;2023-04-15T08:22:47;2.23;;;1.40;;
7181;SDS011;3632;42.724;23.298;2023-04-15T08:25:16;2.20;;;0.97;;
7181;SDS011;3632;42.724;23.298;2023-04-15T08:27:43;3.30;;;1.07;;
7181;SDS011;3632;42.724;23.298;2023-04-15T08:30:10;1.87;;;1.03;;
7181;SDS011;3632;42.724;23.298;2023-04-15T08:32:37;1.27;;;1.00;;
7181;SDS011;3632;42.724;23.298;2023-04-15T08:35:06;3.23;;;1.20;;
7181;SDS011;3632;42.724;23.298;2023-04-15T08:37:33;4.37;;;1.20;;
7181;SDS011;3632;42.724;23.298;2023-04-15T08:40:00;2.23;;;1.20;;
7181;SDS011;3632;42.724;23.298;2023-04-15T08:42:29;1.93;;;1.20;;
7181;SDS011;3632;42.724;23.298;2023-04-15T08:44:58;1.97;;;1.03;;
7181;SDS011;3632;42.724;23.298;2023-04-15T08:47:25;1.43;;;1.00;;
7181;SDS011;3632;42.724;23.298;2023-04-15T08:49:55;3.37;;;1.20;;
7181;SDS011;3632;42.724;23.298;2023-04-15T08:52:25;3.97;;;1.20;;
7181;SDS011;3632;42.724;23.298;2023-04-15T08:54:53;2.63;;;1.90;;
7181;SDS011;3632;42.724;23.298;2023-04-15T08:57:24;2.90;;;1.10;;
7181;SDS011;3632;42.724;23.298;2023-04-15T08:59:52;3.20;;;1.50;;
7181;SDS011;3632;42.724;23.298;2023-04-15T09:02:19;4.33;;;1.57;;
7181;SDS011;3632;42.724;23.298;2023-04-15T09:04:47;3.53;;;2.00;;
7181;SDS011;3632;42.724;23.298;2023-04-15T09:07:14;2.57;;;1.50;;
7181;SDS011;3632;42.724;23.298;2023-04-15T09:09:42;2.33;;;1.30;;
7181;SDS011;3632;42.724;23.298;2023-04-15T09:12:09;4.80;;;2.03;;
7181;SDS011;3632;42.724;23.298;2023-04-15T09:14:37;2.97;;;1.40;;
7181;SDS011;3632;42.724;23.298;2023-04-15T09:17:08;2.97;;;1.00;;
7181;SDS011;3632;42.724;23.298;2023-04-15T09:19:37;3.33;;;1.20;;
7181;SDS011;3632;42.724;23.298;2023-04-15T09:22:03;3.10;;;1.23;;
7181;SDS011;3632;42.724;23.298;2023-04-15T09:24:34;2.07;;;1.53;;
7181;SDS011;3632;42.724;23.298;2023-04-15T09:27:04;4.40;;;2.23;;
7181;SDS011;3632;42.724;23.298;2023-04-15T09:29:31;3.70;;;1.83;;
7181;SDS011;3632;42.724;23.298;2023-04-15T09:32:08;2.77;;;2.23;;
7181;SDS011;3632;42.724;23.298;2023-04-15T09:34:36;3.80;;;1.40;;
7181;SDS011;3632;42.724;23.298;2023-04-15T09:37:03;2.17;;;1.63;;
7181;SDS011;3632;42.724;23.298;2023-04-15T09:39:44;4.97;;;2.90;;
7181;SDS011;3632;42.724;23.298;2023-04-15T09:42:15;3.10;;;1.40;;
7181;SDS011;3632;42.724;23.298;2023-04-15T09:44:48;3.67;;;1.50;;
7181;SDS011;3632;42.724;23.298;2023-04-15T09:47:27;5.13;;;2.50;;
7181;SDS011;3632;42.724;23.298;2023-04-15T09:49:55;7.00;;;2.50;;
7181;SDS011;3632;42.724;23.298;2023-04-15T09:52:22;9.43;;;5.20;;
7181;SDS011;3632;42.724;23.298;2023-04-15T09:54:51;4.03;;;1.80;;
7181;SDS011;3632;42.724;23.298;2023-04-15T09:57:22;1.10;;;0.90;;
7181;SDS011;3632;42.724;23.298;2023-04-15T09:59:49;1.60;;;1.37;;
7181;SDS011;3632;42.724;23.298;2023-04-15T10:02:16;3.60;;;2.23;;
7181;SDS011;3632;42.724;23.298;2023-04-15T10:04:44;4.33;;;1.50;;
7181;SDS011;3632;42.724;23.298;2023-04-15T10:07:13;4.90;;;2.83;;
7181;SDS011;3632;42.724;23.298;2023-04-15T10:09:42;2.83;;;1.20;;
7181;SDS011;3632;42.724;23.298;2023-04-15T10:12:11;4.80;;;2.97;;
7181;SDS011;3632;42.724;23.298;2023-04-15T10:14:40;2.83;;;1.17;;
7181;SDS011;3632;42.724;23.298;2023-04-15T10:17:09;1.77;;;1.13;;
7181;SDS011;3632;42.724;23.298;2023-04-15T10:19:37;2.77;;;2.37;;
7181;SDS011;3632;42.724;23.298;2023-04-15T10:22:04;1.80;;;1.10;;
7181;SDS011;3632;42.724;23.298;2023-04-15T10:24:32;3.30;;;1.30;;
7181;SDS011;3632;42.724;23.298;2023-04-15T10:26:59;5.53;;;1.70;;
7181;SDS011;3632;42.724;23.298;2023-04-15T10:29:28;1.27;;;0.90;;
7181;SDS011;3632;42.724;23.298;2023-04-15T10:31:56;2.47;;;0.97;;
7181;SDS011;3632;42.724;23.298;2023-04-15T10:34:24;2.13;;;1.10;;
7181;SDS011;3632;42.724;23.298;2023-04-15T10:36:54;2.33;;;1.43;;
7181;SDS011;3632;42.724;23.298;2023-04-15T10:39:41;2.93;;;1.30;;
7181;SDS011;3632;42.724;23.298;2023-04-15T10:42:09;3.03;;;1.13;;
7181;SDS011;3632;42.724;23.298;2023-04-15T10:44:37;2.77;;;1.23;;
7181;SDS011;3632;42.724;23.298;2023-04-15T10:47:08;2.87;;;1.50;;
7181;SDS011;3632;42.724;23.298;2023-04-15T10:49:42;2.67;;;1.07;;
7181;SDS011;3632;42.724;23.298;2023-04-15T10:52:10;2.90;;;1.50;;
7181;SDS011;3632;42.724;23.298;2023-04-15T10:54:37;3.20;;;1.23;;
7181;SDS011;3632;42.724;23.298;2023-04-15T10:57:08;5.77;;;1.90;;
7181;SDS011;3632;42.724;23.298;2023-04-15T11:02:40;2.90;;;1.60;;
7181;SDS011;3632;42.724;23.298;2023-04-15T11:05:10;2.57;;;1.60;;
7181;SDS011;3632;42.724;23.298;2023-04-15T11:07:38;3.30;;;1.30;;
7181;SDS011;3632;42.724;23.298;2023-04-15T11:13:15;3.73;;;1.60;;
7181;SDS011;3632;42.724;23.298;2023-04-15T11:15:44;3.47;;;1.50;;
7181;SDS011;3632;42.724;23.298;2023-04-15T11:18:14;3.13;;;1.83;;
7181;SDS011;3632;42.724;23.298;2023-04-15T11:20:42;3.60;;;1.90;;
7181;SDS011;3632;42.724;23.298;2023-04-15T11:23:10;1.50;;;1.30;;
7181;SDS011;3632;42.724;23.298;2023-04-15T11:25:36;3.30;;;1.80;;
7181;SDS011;3632;42.724;23.298;2023-04-15T11:28:03;2.63;;;2.00;;
7181;SDS011;3632;42.724;23.298;2023-04-15T11:30:32;2.50;;;1.57;;
7181;SDS011;3632;42.724;23.298;2023-04-15T11:33:01;3.23;;;2.47;;
7181;SDS011;3632;42.724;23.298;2023-04-15T11:35:30;2.40;;;1.10;;
7181;SDS011;3632;42.724;23.298;2023-04-15T11:38:01;2.17;;;1.40;;
7181;SDS011;3632;42.724;23.298;2023-04-15T11:40:29;1.53;;;1.30;;
7181;SDS011;3632;42.724;23.298;2023-04-15T11:43:04;2.80;;;1.30;;
7181;SDS011;3632;42.724;23.298;2023-04-15T11:45:32;3.37;;;1.53;;
7181;SDS011;3632;42.724;23.298;2023-04-15T11:48:04;1.50;;;1.30;;
7181;SDS011;3632;42.724;23.298;2023-04-15T11:50:33;1.90;;;1.20;;
7181;SDS011;3632;42.724;23.298;2023-04-15T11:53:01;1.60;;;1.07;;
7181;SDS011;3632;42.724;23.298;2023-04-15T11:55:29;4.23;;;1.50;;
7181;SDS011;3632;42.724;23.298;2023-04-15T11:58:09;2.60;;;1.30;;
7181;SDS011;3632;42.724;23.298;2023-04-15T12:00:38;1.53;;;1.30;;
7181;SDS011;3632;42.724;23.298;2023-04-15T12:03:12;3.83;;;1.30;;
7181;SDS011;3632;42.724;23.298;2023-04-15T12:08:59;1.73;;;1.00;;
7181;SDS011;3632;42.724;23.298;2023-04-15T12:11:33;1.43;;;0.87;;
7181;SDS011;3632;42.724;23.298;2023-04-15T12:14:03;1.23;;;0.73;;
7181;SDS011;3632;42.724;23.298;2023-04-15T12:16:39;2.10;;;1.00;;
7181;SDS011;3632;42.724;23.298;2023-04-15T12:19:08;2.50;;;1.50;;
7181;SDS011;3632;42.724;23.298;2023-04-15T12:21:39;2.73;;;1.20;;
7181;SDS011;3632;42.724;23.298;2023-04-15T12:24:07;3.90;;;1.47;;
7181;SDS011;3632;42.724;23.298;2023-04-15T12:26:36;1.30;;;0.83;;
7181;SDS011;3632;42.724;23.298;2023-04-15T12:29:09;2.23;;;1.10;;
7181;SDS011;3632;42.724;23.298;2023-04-15T12:31:42;1.60;;;1.30;;
7181;SDS011;3632;42.724;23.298;2023-04-15T12:34:13;1.87;;;1.03;;
7181;SDS011;3632;42.724;23.298;2023-04-15T12:36:42;2.27;;;1.40;;
7181;SDS011;3632;42.724;23.298;2023-04-15T12:39:09;3.67;;;2.30;;
7181;SDS011;3632;42.724;23.298;2023-04-15T12:41:35;2.37;;;1.40;;
7181;SDS011;3632;42.724;23.298;2023-04-15T12:44:02;2.17;;;1.27;;
7181;SDS011;3632;42.724;23.298;2023-04-15T12:46:29;3.73;;;2.60;;
7181;SDS011;3632;42.724;23.298;2023-04-15T12:48:56;4.03;;;2.20;;
7181;SDS011;3632;42.724;23.298;2023-04-15T12:51:23;2.50;;;1.00;;
7181;SDS011;3632;42.724;23.298;2023-04-15T12:53:51;2.20;;;1.17;;
7181;SDS011;3632;42.724;23.298;2023-04-15T12:56:18;2.10;;;1.07;;
7181;SDS011;3632;42.724;23.298;2023-04-15T12:58:45;1.67;;;1.00;;
7181;SDS011;3632;42.724;23.298;2023-04-15T13:01:13;2.43;;;1.30;;
7181;SDS011;3632;42.724;23.298;2023-04-15T13:03:40;3.03;;;1.03;;
7181;SDS011;3632;42.724;23.298;2023-04-15T13:06:07;1.73;;;1.00;;
7181;SDS011;3632;42.724;23.298;2023-04-15T13:08:33;2.77;;;0.90;;
7181;SDS011;3632;42.724;23.298;2023-04-15T13:11:02;2.50;;;1.00;;
7181;SDS011;3632;42.724;23.298;2023-04-15T13:13:28;2.30;;;0.97;;
7181;SDS011;3632;42.724;23.298;2023-04-15T13:15:56;1.53;;;1.00;;
7181;SDS011;3632;42.724;23.298;2023-04-15T13:18:22;1.67;;;1.00;;
7181;SDS011;3632;42.724;23.298;2023-04-15T13:20:50;2.67;;;1.10;;
7181;SDS011;3632;42.724;23.298;2023-04-15T13:23:16;1.80;;;1.00;;
7181;SDS011;3632;42.724;23.298;2023-04-15T13:25:43;1.47;;;1.10;;
7181;SDS011;3632;42.724;23.298;2023-04-15T13:28:11;1.40;;;0.90;;
7181;SDS011;3632;42.724;23.298;2023-04-15T13:30:38;1.63;;;1.00;;
7181;SDS011;3632;42.724;23.298;2023-04-15T13:33:05;2.23;;;1.10;;
7181;SDS011;3632;42.724;23.298;2023-04-15T13:35:32;2.70;;;1.10;;
7181;SDS011;3632;42.724;23.298;2023-04-15T13:37:59;1.83;;;1.03;;
7181;SDS011;3632;42.724;23.298;2023-04-15T13:40:25;2.23;;;0.90;;
7181;SDS011;3632;42.724;23.298;2023-04-15T13:42:52;1.00;;;0.83;;
7181;SDS011;3632;42.724;23.298;2023-04-15T13:45:20;1.70;;;1.10;;
7181;SDS011;3632;42.724;23.298;2023-04-15T13:47:47;2.40;;;1.13;;
7181;SDS011;3632;42.724;23.298;2023-04-15T13:50:14;2.93;;;1.23;;
7181;SDS011;3632;42.724;23.298;2023-04-15T13:52:41;1.63;;;0.80;;
7181;SDS011;3632;42.724;23.298;2023-04-15T13:55:08;1.67;;;0.73;;
7181;SDS011;3632;42.724;23.298;2023-04-15T13:57:36;1.80;;;1.20;;
7181;SDS011;3632;42.724;23.298;2023-04-15T14:00:03;1.00;;;0.80;;
7181;SDS011;3632;42.724;23.298;2023-04-15T14:02:31;2.50;;;1.10;;
7181;SDS011;3632;42.724;23.298;2023-04-15T14:04:59;2.67;;;1.00;;
7181;SDS011;3632;42.724;23.298;2023-04-15T14:07:25;1.87;;;1.07;;
7181;SDS011;3632;42.724;23.298;2023-04-15T14:09:54;1.40;;;1.10;;
7181;SDS011;3632;42.724;23.298;2023-04-15T14:12:20;1.43;;;0.80;;
7181;SDS011;3632;42.724;23.298;2023-04-15T14:14:48;1.70;;;1.10;;
7181;SDS011;3632;42.724;23.298;2023-04-15T14:17:16;1.30;;;1.00;;
7181;SDS011;3632;42.724;23.298;2023-04-15T14:19:44;2.83;;;1.07;;
7181;SDS011;3632;42.724;23.298;2023-04-15T14:22:11;1.70;;;1.10;;
7181;SDS011;3632;42.724;23.298;2023-04-15T14:24:38;1.40;;;1.00;;
7181;SDS011;3632;42.724;23.298;2023-04-15T14:27:04;3.07;;;1.37;;
7181;SDS011;3632;42.724;23.298;2023-04-15T14:29:32;1.37;;;0.90;;
7181;SDS011;3632;42.724;23.298;2023-04-15T14:31:59;2.33;;;1.13;;
7181;SDS011;3632;42.724;23.298;2023-04-15T14:34:26;1.43;;;0.70;;
7181;SDS011;3632;42.724;23.298;2023-04-15T14:36:54;1.43;;;1.30;;
7181;SDS011;3632;42.724;23.298;2023-04-15T14:39:21;3.07;;;1.10;;
7181;SDS011;3632;42.724;23.298;2023-04-15T14:41:48;1.40;;;1.00;;
7181;SDS011;3632;42.724;23.298;2023-04-15T14:44:15;1.57;;;0.80;;
7181;SDS011;3632;42.724;23.298;2023-04-15T14:46:42;1.73;;;1.20;;
7181;SDS011;3632;42.724;23.298;2023-04-15T14:49:08;2.87;;;1.33;;
7181;SDS011;3632;42.724;23.298;2023-04-15T14:51:35;1.20;;;0.77;;
7181;SDS011;3632;42.724;23.298;2023-04-15T14:54:03;2.33;;;0.90;;
7181;SDS011;3632;42.724;23.298;2023-04-15T14:56:30;1.47;;;0.90;;
7181;SDS011;3632;42.724;23.298;2023-04-15T14:58:57;2.87;;;0.90;;
7181;SDS011;3632;42.724;23.298;2023-04-15T15:01:24;1.47;;;0.90;;
7181;SDS011;3632;42.724;23.298;2023-04-15T15:03:51;2.13;;;1.20;;
7181;SDS011;3632;42.724;23.298;2023-04-15T15:06:19;3.77;;;2.80;;
7181;SDS011;3632;42.724;23.298;2023-04-15T15:08:46;4.03;;;1.10;;
7181;SDS011;3632;42.724;23.298;2023-04-15T15:11:14;1.90;;;0.90;;